createdAt,value
2019-05-29T00:03:30.756Z,54.25
2019-05-29T00:12:51.629Z,53.93
2019-05-29T00:19:00.570Z,54.10
2019-05-29T00:24:08.295Z,54.28
2019-05-29T00:33:25.595Z,54.16
2019-05-29T00:43:55.579Z,54.36
2019-05-29T00:52:16.651Z,54.46
2019-05-29T00:57:23.571Z,54.01
2019-05-29T01:02:30.567Z,53.85
2019-05-29T01:07:37.437Z,53.85
2019-05-29T01:12:44.590Z,53.91
2019-05-29T01:17:51.581Z,54.12
2019-05-29T01:22:59.061Z,53.97
2019-05-29T01:28:08.665Z,53.97
2019-05-29T01:33:20.022Z,54.06
2019-05-29T01:38:24.436Z,54.06
2019-05-29T01:43:31.419Z,54.01
2019-05-29T01:48:38.484Z,54.07
2019-05-29T01:53:45.440Z,54.21
2019-05-29T01:58:52.462Z,54.41
2019-05-29T02:03:59.464Z,54.41
2019-05-29T02:09:08.066Z,54.37
2019-05-29T02:14:16.346Z,54.37
2019-05-29T02:19:24.017Z,54.30
2019-05-29T02:24:31.411Z,54.47
2019-05-29T02:29:38.444Z,54.62
2019-05-29T02:34:45.518Z,54.79
2019-05-29T02:39:52.411Z,55.02
2019-05-29T02:44:59.543Z,55.45
2019-05-29T02:50:08.276Z,55.72
2019-05-29T02:55:15.594Z,55.95
2019-05-29T03:00:40.919Z,56.43
2019-05-29T03:05:48.408Z,56.43
2019-05-29T03:10:55.461Z,56.66
2019-05-29T03:16:10.605Z,56.71
2019-05-29T03:21:11.556Z,57.06
2019-05-29T03:26:24.760Z,57.06
2019-05-29T03:31:36.971Z,57.29
2019-05-29T03:36:46.950Z,57.20
2019-05-29T03:41:47.432Z,57.24
2019-05-29T03:46:54.472Z,57.48
2019-05-29T03:52:01.478Z,57.49
2019-05-29T03:57:08.533Z,57.60
2019-05-29T04:02:15.476Z,57.61
2019-05-29T04:07:22.497Z,57.46
2019-05-29T04:12:30.031Z,57.50
2019-05-29T04:17:42.548Z,57.50
2019-05-29T04:22:52.569Z,57.38
2019-05-29T04:28:02.267Z,57.37
2019-05-29T04:33:10.096Z,57.37
2019-05-29T04:38:17.417Z,57.30
2019-05-29T04:43:24.454Z,57.35
2019-05-29T04:48:33.149Z,57.36
2019-05-29T04:53:40.568Z,57.01
2019-05-29T04:58:49.464Z,56.84
2019-05-29T05:03:56.583Z,56.95
2019-05-29T05:09:03.473Z,56.55
2019-05-29T05:14:10.579Z,56.22
2019-05-29T05:19:17.580Z,56.01
2019-05-29T05:24:24.659Z,55.97
2019-05-29T05:29:32.164Z,56.17
2019-05-29T05:34:40.895Z,56.17
2019-05-29T05:39:48.464Z,55.46
2019-05-29T05:44:55.567Z,55.36
2019-05-29T05:50:02.630Z,55.27
2019-05-29T05:55:09.498Z,54.94
2019-05-29T06:00:22.128Z,54.94
2019-05-29T06:05:28.291Z,54.67
2019-05-29T06:10:36.159Z,54.06
2019-05-29T06:15:43.557Z,53.23
2019-05-29T06:20:53.021Z,51.69
2019-05-29T06:26:00.429Z,51.69
2019-05-29T06:31:11.569Z,50.74
2019-05-29T06:36:20.545Z,47.92
2019-05-29T06:41:27.626Z,47.86
2019-05-29T06:46:36.145Z,46.91
2019-05-29T06:51:43.536Z,46.91
2019-05-29T06:56:55.273Z,47.48
2019-05-29T07:06:44.781Z,48.46
2019-05-29T07:11:51.594Z,43.81
2019-05-29T07:16:58.456Z,46.38
2019-05-29T07:22:07.238Z,46.38
2019-05-29T07:27:14.445Z,46.27
2019-05-29T07:32:22.539Z,46.57
2019-05-29T07:37:29.578Z,46.15
2019-05-29T07:42:36.468Z,46.15
2019-05-29T07:47:44.747Z,46.34
2019-05-29T07:52:51.635Z,45.36
2019-05-29T07:57:58.572Z,44.45
2019-05-29T08:03:05.471Z,44.45
2019-05-29T08:08:14.717Z,43.65
2019-05-29T08:13:22.879Z,43.65
2019-05-29T08:18:29.878Z,41.79
2019-05-29T08:23:36.582Z,41.22
2019-05-29T08:28:44.770Z,41.19
2019-05-29T08:33:52.405Z,41.29
2019-05-29T08:38:59.513Z,41.29
2019-05-29T08:44:09.322Z,40.27
2019-05-29T08:49:18.897Z,40.22
2019-05-29T08:54:26.277Z,39.55
2019-05-29T08:59:33.694Z,37.70
2019-05-29T09:04:43.142Z,36.90
2019-05-29T09:09:51.224Z,36.90
2019-05-29T09:14:58.458Z,34.70
2019-05-29T09:20:06.256Z,34.70
2019-05-29T09:25:13.685Z,34.06
2019-05-29T09:30:21.903Z,33.55
2019-05-29T09:35:31.260Z,32.82
2019-05-29T09:40:37.343Z,33.54
2019-05-29T09:45:43.624Z,33.13
2019-05-29T09:50:51.007Z,32.54
2019-05-29T09:55:59.120Z,32.09
2019-05-29T10:01:21.438Z,32.09
2019-05-29T10:06:15.565Z,32.09
2019-05-29T10:11:22.443Z,31.43
2019-05-29T10:16:29.450Z,31.43
2019-05-29T10:21:40.636Z,31.09
2019-05-29T10:26:45.432Z,30.62
2019-05-29T10:31:53.439Z,31.21
2019-05-29T10:37:00.479Z,29.08
2019-05-29T10:42:07.937Z,29.08
2019-05-29T10:47:16.563Z,28.70
2019-05-29T10:52:23.936Z,30.03
2019-05-29T10:57:32.713Z,29.86
2019-05-29T11:02:39.586Z,30.10
2019-05-29T11:07:47.637Z,28.78
2019-05-29T11:12:54.739Z,28.78
2019-05-29T11:18:01.613Z,28.61
2019-05-29T11:25:27.448Z,28.13
2019-05-29T11:30:32.576Z,28.29
2019-05-29T11:35:54.857Z,27.83
2019-05-29T11:45:01.631Z,27.76
2019-05-29T12:00:25.031Z,26.72
2019-05-29T12:05:32.456Z,26.52
2019-05-29T12:13:40.569Z,27.73
2019-05-29T12:18:47.432Z,26.02
2019-05-29T12:23:54.424Z,26.02
2019-05-29T12:35:26.434Z,27.95
2019-05-29T12:40:34.664Z,25.37
2019-05-29T12:50:58.233Z,25.12
2019-05-29T12:56:05.616Z,25.30
2019-05-29T13:01:12.611Z,23.48
2019-05-29T13:12:37.538Z,24.80
2019-05-29T13:17:45.600Z,23.62
2019-05-29T13:29:10.045Z,24.49
2019-05-29T13:34:18.261Z,22.59
2019-05-29T13:43:31.601Z,22.79
2019-05-29T13:50:30.929Z,23.76
2019-05-29T13:55:52.617Z,21.16
2019-05-29T14:01:24.583Z,21.54
2019-05-29T14:09:11.459Z,20.33
2019-05-29T14:14:18.638Z,19.74
2019-05-29T14:19:40.639Z,21.19
2019-05-29T14:24:48.013Z,18.92
2019-05-29T14:29:56.755Z,18.92
2019-05-29T14:35:05.592Z,19.67
2019-05-29T14:41:01.742Z,20.70
2019-05-29T14:46:08.588Z,19.82
2019-05-29T14:51:15.510Z,20.18
2019-05-29T15:00:25.526Z,21.05
2019-05-29T15:07:11.994Z,20.40
2019-05-29T15:17:15.455Z,20.67
2019-05-29T15:26:14.057Z,20.95
2019-05-29T15:31:21.419Z,20.45
2019-05-29T15:36:29.423Z,19.47
2019-05-29T15:51:46.531Z,21.44
2019-05-29T16:08:39.707Z,21.72
2019-05-29T16:18:48.973Z,23.05
2019-05-29T16:23:56.407Z,22.98
2019-05-29T16:29:03.902Z,23.77
2019-05-29T16:34:12.323Z,23.32
2019-05-29T16:40:32.270Z,23.26
2019-05-29T16:52:28.101Z,25.39
2019-05-29T17:02:25.588Z,26.78
2019-05-29T17:07:32.447Z,27.12
2019-05-29T17:16:26.686Z,27.10
2019-05-29T17:21:33.458Z,25.83
2019-05-29T17:35:57.632Z,26.69
2019-05-29T17:45:21.558Z,26.10
2019-05-29T18:04:12.417Z,25.93
2019-05-29T18:15:57.262Z,27.39
2019-05-29T18:27:12.437Z,28.38
2019-05-29T18:32:20.334Z,28.66
2019-05-29T18:39:22.167Z,28.82
2019-05-29T18:44:29.423Z,28.59
2019-05-29T18:49:36.579Z,28.96
2019-05-29T18:55:38.441Z,29.13
2019-05-29T19:00:46.438Z,28.59
2019-05-29T19:10:16.272Z,29.89
2019-05-29T19:18:36.775Z,30.21
2019-05-29T19:28:47.430Z,30.59
2019-05-29T19:33:55.666Z,30.92
2019-05-29T19:41:13.076Z,31.27
2019-05-29T19:46:53.976Z,31.72
2019-05-29T19:51:59.544Z,32.80
2019-05-29T20:01:06.639Z,33.17
2019-05-29T20:06:13.477Z,33.84
2019-05-29T20:11:20.573Z,33.84
2019-05-29T20:16:30.637Z,34.56
2019-05-29T20:26:29.106Z,35.47
2019-05-29T20:31:42.769Z,35.47
2019-05-29T20:36:50.780Z,36.22
2019-05-29T20:41:57.693Z,36.64
2019-05-29T20:47:04.563Z,36.85
2019-05-29T21:02:18.066Z,37.70
2019-05-29T21:07:26.703Z,38.01
2019-05-29T21:12:35.123Z,38.42
2019-05-29T21:23:56.772Z,37.79
2019-05-29T21:29:03.589Z,39.36
2019-05-29T21:34:10.470Z,40.39
2019-05-29T21:42:30.662Z,39.15
2019-05-29T21:47:38.871Z,40.99
2019-05-29T21:52:47.566Z,40.99
2019-05-29T22:00:53.063Z,40.73
2019-05-29T22:06:01.762Z,41.99
2019-05-29T22:21:50.962Z,40.88
2019-05-29T22:28:41.283Z,45.61
2019-05-29T22:33:48.443Z,45.81
2019-05-29T22:38:55.576Z,45.88
2019-05-29T22:44:02.681Z,45.97
2019-05-29T22:52:02.225Z,45.11
2019-05-29T22:57:08.613Z,46.85
2019-05-29T23:02:15.480Z,47.44
2019-05-29T23:07:22.477Z,48.12
2019-05-29T23:14:43.054Z,46.80
2019-05-29T23:19:50.258Z,47.91
2019-05-29T23:32:14.615Z,49.68
2019-05-29T23:37:21.435Z,49.91
2019-05-29T23:42:29.433Z,49.91
2019-05-29T23:47:37.454Z,50.10
2019-05-29T23:53:15.574Z,49.69
2019-05-29T23:58:22.438Z,51.06
